Time;durP1;ratioP1;P1;durP2;ratioP2;P2;SDS_P1;SDS_P2;PMS_P1;PMS_P2;Temp;Humidity;BMP_temperature;BMP_pressure;BME280_temperature;BME280_humidity;BME280_pressure;Samples;Min_cycle;Max_cycle;Signal;HPM_P1;HPM_P2
2024/04/14 00:05:00;;;;;;;1999.90;999.90;;;;;;;14.50;66.26;101864.50;11359638;26;20009;-66
2024/04/14 00:10:03;;;;;;;1999.90;999.90;;;;;;;14.42;66.51;101871.97;11359210;26;20010;-66
2024/04/14 00:15:06;;;;;;;1999.90;999.90;;;;;;;14.43;66.53;101871.91;11357178;26;20009;-66
2024/04/14 00:20:11;;;;;;;1999.90;999.90;;;;;;;14.28;67.64;101872.75;11358776;26;20013;-66
2024/04/14 00:25:14;;;;;;;1999.90;999.90;;;;;;;14.29;67.66;101877.94;11358953;26;20009;-66
2024/04/14 00:30:17;;;;;;;1999.90;999.90;;;;;;;14.58;68.04;101872.81;11358609;26;19998;-66
2024/04/14 00:35:21;;;;;;;1999.90;999.90;;;;;;;14.12;68.97;101873.63;11358109;26;20329;-66
2024/04/14 00:40:24;;;;;;;1999.90;999.90;;;;;;;13.93;70.01;101868.50;11363149;26;20012;-66
2024/04/14 00:45:27;;;;;;;1999.90;999.90;;;;;;;14.14;69.81;101863.00;11365510;26;19998;-66
2024/04/14 00:50:30;;;;;;;1999.90;999.90;;;;;;;13.87;70.52;101868.84;11365208;26;20013;-66
2024/04/14 00:55:32;;;;;;;1999.90;999.90;;;;;;;13.73;72.58;101869.59;11365077;26;20047;-65
2024/04/14 01:00:35;;;;;;;1999.90;999.90;;;;;;;13.88;73.12;101874.97;11364922;26;20013;-66
2024/04/14 01:05:37;;;;;;;1999.90;999.90;;;;;;;13.75;74.27;101886.16;11365105;26;19999;-66
2024/04/14 01:10:41;;;;;;;1999.90;999.90;;;;;;;13.77;74.40;101887.84;11365003;26;19998;-66
2024/04/14 01:15:44;;;;;;;1999.90;999.90;;;;;;;13.55;75.73;101910.88;11364723;26;20334;-66
2024/04/14 01:20:46;;;;;;;1999.90;999.90;;;;;;;13.62;76.15;101915.84;11362950;26;19998;-66
2024/04/14 01:25:49;;;;;;;1999.90;999.90;;;;;;;13.42;77.65;101909.81;11363121;26;19994;-66
2024/04/14 01:30:51;;;;;;;1999.90;999.90;;;;;;;13.48;77.83;101921.81;11364459;26;19998;-66
2024/04/14 01:35:54;;;;;;;1999.90;999.90;;;;;;;13.57;79.30;101908.19;11364019;26;19998;-65
2024/04/14 01:40:56;;;;;;;1999.90;999.90;;;;;;;13.35;80.68;101911.91;11363983;26;19998;-66
2024/04/14 01:45:59;;;;;;;1999.90;999.90;;;;;;;13.24;81.96;101929.16;11363829;26;20013;-66
2024/04/14 01:51:01;;;;;;;1999.90;999.90;;;;;;;13.24;83.11;101923.88;11362114;26;20013;-65
2024/04/14 01:56:04;;;;;;;1999.90;999.90;;;;;;;13.27;84.87;101936.88;11363698;26;20445;-66
2024/04/14 02:01:07;;;;;;;1999.90;999.90;;;;;;;13.35;84.62;101929.50;11363461;26;20013;-66
2024/04/14 02:06:09;;;;;;;1999.90;999.90;;;;;;;13.33;85.49;101939.22;11363394;26;20002;-65
2024/04/14 02:11:12;;;;;;;1999.90;999.90;;;;;;;13.07;88.20;101940.50;11362976;26;20094;-65
2024/04/14 02:16:14;;;;;;;1999.90;999.90;;;;;;;13.04;90.15;101952.00;11362825;26;20006;-66
2024/04/14 02:21:17;;;;;;;1999.90;999.90;;;;;;;13.10;90.46;101951.72;11363059;26;19998;-66
2024/04/14 02:26:19;;;;;;;1999.90;999.90;;;;;;;13.16;90.39;101955.81;11362651;26;20008;-66
2024/04/14 02:31:22;;;;;;;1999.90;999.90;;;;;;;13.23;88.54;101965.13;11362843;26;20006;-66
2024/04/14 02:36:27;;;;;;;1999.90;999.90;;;;;;;12.92;91.16;101971.03;11362484;26;20026;-66
2024/04/14 02:41:30;;;;;;;1999.90;999.90;;;;;;;13.08;88.91;101964.09;11362413;26;20450;-66
2024/04/14 02:46:32;;;;;;;1999.90;999.90;;;;;;;13.02;87.90;101967.03;11360137;26;20005;-66
2024/04/14 02:51:35;;;;;;;1999.90;999.90;;;;;;;13.24;86.57;101969.44;11361852;26;20013;-66
2024/04/14 02:56:37;;;;;;;1999.90;999.90;;;;;;;12.95;87.46;101957.75;11361808;26;19998;-66
2024/04/14 03:01:40;;;;;;;1999.90;999.90;;;;;;;13.05;85.61;101972.13;11361053;26;19998;-66
2024/04/14 03:06:42;;;;;;;1999.90;999.90;;;;;;;13.04;84.77;101967.78;11361543;26;19998;-66
2024/04/14 03:11:45;;;;;;;1999.90;999.90;;;;;;;12.82;85.23;101973.25;11361423;26;20013;-66
2024/04/14 03:16:47;;;;;;;1999.90;999.90;;;;;;;12.66;83.54;101967.88;11361283;26;20013;-66
2024/04/14 03:21:50;;;;;;;1999.90;999.90;;;;;;;12.74;84.02;101972.75;11360876;26;20486;-66
2024/04/14 03:26:58;;;;;;;1999.90;999.90;;;;;;;12.52;82.99;101986.06;11360791;26;20345;-66
2024/04/14 03:32:00;;;;;;;1999.90;999.90;;;;;;;12.63;81.96;101989.88;11360957;26;20502;-66
2024/04/14 03:37:05;;;;;;;1999.90;999.90;;;;;;;12.62;81.88;102005.72;11360780;26;20009;-66
2024/04/14 03:42:07;;;;;;;1999.90;999.90;;;;;;;12.49;82.12;102005.47;11360580;26;20051;-66
2024/04/14 03:47:10;;;;;;;1999.90;999.90;;;;;;;12.57;81.79;101986.69;11359913;26;20008;-66
2024/04/14 03:52:12;;;;;;;1999.90;999.90;;;;;;;12.57;81.05;102002.47;11358417;26;20030;-66
2024/04/14 03:57:14;;;;;;;1999.90;999.90;;;;;;;12.53;80.20;102019.28;11359849;26;19998;-66
2024/04/14 04:02:17;;;;;;;1999.90;999.90;;;;;;;12.41;79.65;102016.31;11359698;26;20461;-66
2024/04/14 04:07:19;;;;;;;1999.90;999.90;;;;;;;12.58;80.84;102009.44;11359528;26;20009;-66
2024/04/14 04:12:22;;;;;;;1999.90;999.90;;;;;;;12.23;81.70;102009.25;11359358;26;20352;-66
2024/04/14 04:17:24;;;;;;;1999.90;999.90;;;;;;;12.11;83.67;102022.94;11366497;26;20002;-66
2024/04/14 04:22:27;;;;;;;1999.90;999.90;;;;;;;11.68;82.94;102021.22;11366629;26;20070;-66
2024/04/14 04:27:29;;;;;;;1999.90;999.90;;;;;;;11.78;82.72;102028.69;11366268;26;20012;-65
2024/04/14 04:32:32;;;;;;;1999.90;999.90;;;;;;;11.91;82.78;102032.53;11366385;26;20010;-66
2024/04/14 04:37:36;;;;;;;1999.90;999.90;;;;;;;11.70;82.95;102031.63;11365906;26;19998;-66
2024/04/14 04:42:39;;;;;;;1999.90;999.90;;;;;;;11.72;82.22;102032.44;11366059;26;20341;-66
2024/04/14 04:47:41;;;;;;;1999.90;999.90;;;;;;;11.75;82.86;102052.44;11365746;26;20072;-65
2024/04/14 04:52:44;;;;;;;1999.90;999.90;;;;;;;11.36;83.18;102048.78;11365732;26;20006;-65
2024/04/14 04:57:46;;;;;;;1999.90;999.90;;;;;;;11.69;82.69;102064.06;11365427;26;20009;-65
2024/04/14 05:02:49;;;;;;;1999.90;999.90;;;;;;;11.70;81.99;102069.25;11363604;26;20468;-65
2024/04/14 05:07:52;;;;;;;1999.90;999.90;;;;;;;11.72;82.56;102058.69;11363404;26;20051;-65
2024/04/14 05:12:54;;;;;;;1999.90;999.90;;;;;;;11.56;82.96;102066.31;11364874;26;20029;-65
2024/04/14 05:17:57;;;;;;;1999.90;999.90;;;;;;;11.80;84.02;102071.47;11364907;26;20002;-65
2024/04/14 05:23:00;;;;;;;1999.90;999.90;;;;;;;11.88;82.22;102072.88;11372126;20;20017;-63
2024/04/14 05:28:02;;;;;;;1999.90;999.90;;;;;;;11.77;83.42;102071.59;11331994;26;20017;-63
2024/04/14 05:33:05;;;;;;;1999.90;999.90;;;;;;;11.92;82.73;102085.88;11364655;26;20001;-63
2024/04/14 05:38:08;;;;;;;1999.90;999.90;;;;;;;11.84;82.33;102083.56;11362591;26;20074;-63
2024/04/14 05:43:11;;;;;;;1999.90;999.90;;;;;;;12.04;83.57;102090.59;11364090;26;20009;-63
2024/04/14 05:48:14;;;;;;;1999.90;999.90;;;;;;;12.18;81.01;102097.88;11364054;26;19998;-63
2024/04/14 05:53:16;;;;;;;1999.90;999.90;;;;;;;11.91;80.72;102092.91;11364094;26;20009;-63
2024/04/14 05:58:19;;;;;;;1999.90;999.90;;;;;;;12.68;80.56;102101.81;11363829;26;20453;-63
2024/04/14 06:03:21;;;;;;;1999.90;999.90;;;;;;;12.21;79.44;102108.25;11361763;26;20078;-63
2024/04/14 06:08:24;;;;;;;1999.90;999.90;;;;;;;11.97;81.21;102111.00;11363463;26;19998;-63
2024/04/14 06:13:27;;;;;;;1999.90;999.90;;;;;;;12.40;80.87;102111.75;11363315;26;19998;-63
2024/04/14 06:18:29;;;;;;;1999.90;999.90;;;;;;;12.35;80.89;102115.53;11363021;26;20068;-63
2024/04/14 06:23:32;;;;;;;1999.90;999.90;;;;;;;12.70;81.51;102110.47;11362661;26;20008;-63
2024/04/14 06:28:35;;;;;;;1999.90;999.90;;;;;;;12.62;80.96;102121.31;11362746;26;20013;-64
2024/04/14 06:33:37;;;;;;;1999.90;999.90;;;;;;;12.51;82.54;102113.94;11361040;26;20344;-64
2024/04/14 06:38:44;;;;;;;1999.90;999.90;;;;;;;12.61;81.90;102117.00;11361432;26;20001;-64
2024/04/14 06:43:46;;;;;;;1999.90;999.90;;;;;;;12.67;80.71;102126.38;11360651;26;20022;-64
2024/04/14 06:48:49;;;;;;;1999.90;999.90;;;;;;;12.54;81.23;102123.44;11360126;26;20337;-63
2024/04/14 06:53:51;;;;;;;1999.90;999.90;;;;;;;12.60;80.81;102131.91;11362030;26;20445;-63
2024/04/14 06:58:53;;;;;;;1999.90;999.90;;;;;;;12.78;81.02;102137.25;11362009;26;20009;-63
2024/04/14 07:03:56;;;;;;;1999.90;999.90;;;;;;;12.54;80.06;102150.59;11361532;26;20009;-63
2024/04/14 07:08:58;;;;;;;1999.90;999.90;;;;;;;13.02;80.05;102140.53;11360071;26;20014;-63
2024/04/14 07:14:01;;;;;;;1999.90;999.90;;;;;;;13.22;79.46;102144.88;11361509;26;20001;-63
2024/04/14 07:19:03;;;;;;;1999.90;999.90;;;;;;;12.85;77.04;102162.34;11359805;26;20046;-63
2024/04/14 07:24:06;;;;;;;1999.90;999.90;;;;;;;12.88;76.45;102164.84;11360970;26;19998;-64
2024/04/14 07:29:09;;;;;;;1999.90;999.90;;;;;;;12.83;76.31;102157.16;11361699;26;20005;-63
2024/04/14 07:34:11;;;;;;;1999.90;999.90;;;;;;;13.15;74.85;102159.25;11358944;26;20012;-63
2024/04/14 07:39:14;;;;;;;1999.90;999.90;;;;;;;13.81;73.67;102152.63;11360239;26;20468;-63
2024/04/14 07:44:17;;;;;;;1999.90;999.90;;;;;;;14.54;69.57;102155.91;11360561;26;20012;-63
2024/04/14 07:49:19;;;;;;;1999.90;999.90;;;;;;;14.15;69.16;102156.19;11360015;26;20002;-63
2024/04/14 07:54:22;;;;;;;1999.90;999.90;;;;;;;14.55;70.14;102143.59;11360168;26;20340;-63
2024/04/14 07:59:24;;;;;;;1999.90;999.90;;;;;;;14.84;67.70;102164.03;11359794;26;20009;-64
2024/04/14 08:04:26;;;;;;;1999.90;999.90;;;;;;;14.55;67.01;102159.41;11358469;26;20476;-63
2024/04/14 08:09:29;;;;;;;1999.90;999.90;;;;;;;14.20;67.24;102167.34;11359749;26;20006;-63
2024/04/14 08:14:32;;;;;;;1999.90;999.90;;;;;;;13.89;66.40;102168.88;11359238;26;20010;-63
2024/04/14 08:19:34;;;;;;;1999.90;999.90;;;;;;;14.63;64.52;102173.91;11359157;26;19998;-63
2024/04/14 08:24:36;;;;;;;1999.90;999.90;;;;;;;15.30;63.35;102176.47;11358607;26;19998;-63
2024/04/14 08:29:39;;;;;;;1999.90;999.90;;;;;;;14.46;64.39;102187.94;11357298;26;20070;-63
2024/04/14 08:34:42;;;;;;;1999.90;999.90;;;;;;;14.91;61.91;102179.50;11358600;26;20013;-63
2024/04/14 08:39:45;;;;;;;1999.90;999.90;;;;;;;14.97;63.31;102190.56;11358210;26;20517;-63
2024/04/14 08:44:49;;;;;;;1999.90;999.90;;;;;;;14.91;62.45;102177.72;11358521;26;20015;-63
2024/04/14 08:49:51;;;;;;;1999.90;999.90;;;;;;;15.10;60.37;102174.94;11356286;26;19998;-64
2024/04/14 08:54:54;;;;;;;1999.90;999.90;;;;;;;15.36;59.81;102184.03;11356443;26;20020;-63
2024/04/14 08:59:58;;;;;;;1999.90;999.90;;;;;;;15.17;57.91;102175.44;11360112;26;20341;-63
2024/04/14 09:05:01;;;;;;;1999.90;999.90;;;;;;;15.58;57.17;102181.06;11363624;26;20034;-63
2024/04/14 09:10:04;;;;;;;1999.90;999.90;;;;;;;15.29;55.75;102180.03;11363433;26;20008;-63
2024/04/14 09:15:08;;;;;;;1999.90;999.90;;;;;;;15.51;56.72;102184.97;11363429;26;20010;-64
2024/04/14 09:20:10;;;;;;;1999.90;999.90;;;;;;;16.75;54.36;102189.22;11363153;26;20010;-63
2024/04/14 09:25:13;;;;;;;1999.90;999.90;;;;;;;16.96;53.74;102199.44;11362656;26;20012;-63
2024/04/14 09:30:20;;;;;;;1999.90;999.90;;;;;;;16.43;56.50;102205.22;11364864;26;19998;-63
2024/04/14 09:35:23;;;;;;;1999.90;999.90;;;;;;;14.00;57.60;102210.47;11362842;26;20006;-63
2024/04/14 09:40:26;;;;;;;1999.90;999.90;;;;;;;15.19;57.54;102219.25;11364377;26;19998;-63
2024/04/14 09:45:30;;;;;;;1999.90;999.90;;;;;;;16.35;57.21;102205.66;11362090;26;19998;-63
2024/04/14 09:50:35;;;;;;;1999.90;999.90;;;;;;;16.29;55.13;102205.19;11361808;26;20002;-63
2024/04/14 09:55:38;;;;;;;1999.90;999.90;;;;;;;16.03;56.10;102206.72;11363699;26;20341;-63
2024/04/14 10:00:43;;;;;;;1999.90;999.90;;;;;;;16.69;55.60;102201.03;11361809;26;20006;-63
2024/04/14 10:05:45;;;;;;;1999.90;999.90;;;;;;;16.04;57.32;102200.50;11363247;26;20033;-63
2024/04/14 10:10:53;;;;;;;1999.90;999.90;;;;;;;16.79;55.92;102208.38;11359960;26;20009;-63
2024/04/14 10:15:57;;;;;;;1999.90;999.90;;;;;;;16.87;53.07;102200.84;11331313;26;19998;-63
2024/04/14 10:21:02;;;;;;;1999.90;999.90;;;;;;;16.55;55.43;102195.72;11361329;26;19998;-63
2024/04/14 10:26:15;;;;;;;1999.90;999.90;;;;;;;18.90;53.96;102186.66;11360670;26;19998;-63
2024/04/14 10:31:34;;;;;;;1999.90;999.90;;;;;;;18.59;51.66;102185.25;11361032;26;19998;-64
2024/04/14 10:36:40;;;;;;;1999.90;999.90;;;;;;;18.59;50.16;102186.09;11330935;26;20074;-63
2024/04/14 10:41:43;;;;;;;1999.90;999.90;;;;;;;19.43;45.70;102166.03;11359571;26;20009;-63
2024/04/14 10:46:46;;;;;;;1999.90;999.90;;;;;;;19.49;47.96;102178.81;11361124;26;19998;-64
2024/04/14 10:51:49;;;;;;;1999.90;999.90;;;;;;;18.79;46.68;102178.56;11361782;26;20066;-63
2024/04/14 10:56:55;;;;;;;1999.90;999.90;;;;;;;19.57;47.37;102180.94;11361372;26;19998;-63
2024/04/14 11:01:57;;;;;;;1999.90;999.90;;;;;;;21.59;42.25;102156.47;11344263;26;20009;-64
2024/04/14 11:07:01;;;;;;;1999.90;999.90;;;;;;;17.84;46.89;102168.19;11359838;26;20013;-64
2024/04/14 11:12:04;;;;;;;1999.90;999.90;;;;;;;19.13;46.22;102177.03;11359847;26;19998;-64
2024/04/14 11:17:13;;;;;;;1999.90;999.90;;;;;;;21.87;44.57;102153.16;11359706;26;20002;-64
2024/04/14 11:22:17;;;;;;;1999.90;999.90;;;;;;;19.82;43.50;102149.88;11360487;26;20451;-64
2024/04/14 11:27:20;;;;;;;1999.90;999.90;;;;;;;21.86;41.68;102139.97;11359292;26;20006;-64
2024/04/14 11:32:33;;;;;;;1999.90;999.90;;;;;;;21.73;41.99;102134.81;11360978;26;19998;-64
2024/04/14 11:37:37;;;;;;;1999.90;999.90;;;;;;;19.83;45.09;102140.97;11360518;26;20336;-65
2024/04/14 11:42:40;;;;;;;1999.90;999.90;;;;;;;19.03;45.63;102157.41;11360873;26;19998;-66
2024/04/14 11:47:42;;;;;;;1999.90;999.90;;;;;;;19.05;43.02;102135.13;11360503;26;20370;-65
2024/04/14 11:52:45;;;;;;;1999.90;999.90;;;;;;;19.03;43.43;102126.44;11358624;26;20008;-65
2024/04/14 11:57:48;;;;;;;1999.90;999.90;;;;;;;19.75;43.99;102130.06;11359897;26;20012;-65
2024/04/14 12:02:50;;;;;;;1999.90;999.90;;;;;;;21.10;40.51;102119.53;11360007;26;20009;-65
2024/04/14 12:07:53;;;;;;;1999.90;999.90;;;;;;;21.23;40.46;102111.38;11359442;26;20004;-65
2024/04/14 12:12:55;;;;;;;1999.90;999.90;;;;;;;19.59;38.63;102101.13;11357523;26;19998;-66
2024/04/14 12:17:58;;;;;;;1999.90;999.90;;;;;;;21.70;42.17;102108.41;11358946;26;20090;-66
2024/04/14 12:23:00;;;;;;;1999.90;999.90;;;;;;;21.89;40.08;102094.41;11359481;26;19998;-66
2024/04/14 12:28:03;;;;;;;1999.90;999.90;;;;;;;22.41;38.78;102097.09;11358928;26;19998;-66
2024/04/14 12:33:05;;;;;;;1999.90;999.90;;;;;;;21.83;39.82;102082.41;11358700;26;20009;-66
2024/04/14 12:38:09;;;;;;;1999.90;999.90;;;;;;;20.92;38.72;102081.09;11365967;26;20453;-66
2024/04/14 12:43:12;;;;;;;1999.90;999.90;;;;;;;21.42;38.25;102088.56;11366005;26;19999;-65
2024/04/14 12:48:19;;;;;;;1999.90;999.90;;;;;;;21.48;38.95;102066.75;11365542;26;19998;-66
2024/04/14 12:53:22;;;;;;;1999.90;999.90;;;;;;;18.24;41.74;102078.06;11366180;26;20433;-65
2024/04/14 12:58:24;;;;;;;1999.90;999.90;;;;;;;19.27;42.01;102070.69;11365531;26;20006;-65
2024/04/14 13:03:29;;;;;;;1999.90;999.90;;;;;;;17.46;45.14;102087.66;11365550;26;19998;-65
2024/04/14 13:08:32;;;;;;;1999.90;999.90;;;;;;;19.74;42.59;102065.41;11365041;26;20453;-66
2024/04/14 13:13:34;;;;;;;1999.90;999.90;;;;;;;18.54;45.14;102066.22;11360940;26;20449;-65
2024/04/14 13:18:37;;;;;;;1999.90;999.90;;;;;;;20.39;44.37;102057.78;11363633;26;20326;-65
2024/04/14 13:23:40;;;;;;;1999.90;999.90;;;;;;;20.63;41.57;102033.72;11364625;26;20006;-65
2024/04/14 13:28:43;;;;;;;1999.90;999.90;;;;;;;20.82;41.73;102021.59;11364858;26;20009;-65
2024/04/14 13:33:46;;;;;;;1999.90;999.90;;;;;;;20.78;39.10;102019.19;11364216;26;20364;-65
2024/04/14 13:38:51;;;;;;;1999.90;999.90;;;;;;;20.04;41.92;102026.84;11364632;26;19998;-65
2024/04/14 13:43:56;;;;;;;1999.90;999.90;;;;;;;21.24;41.45;102008.34;11362755;26;20341;-65
2024/04/14 13:48:58;;;;;;;1999.90;999.90;;;;;;;18.61;44.05;102019.78;11363410;26;20002;-65
2024/04/14 13:54:01;;;;;;;1999.90;999.90;;;;;;;20.84;40.75;101993.03;11361973;26;20013;-65
2024/04/14 13:59:03;;;;;;;1999.90;999.90;;;;;;;21.23;40.85;101996.00;11364069;26;20334;-65
2024/04/14 14:04:06;;;;;;;1999.90;999.90;;;;;;;19.38;42.92;101987.56;11363839;26;20012;-65
2024/04/14 14:09:12;;;;;;;1999.90;999.90;;;;;;;20.75;38.81;101974.19;11361841;26;20442;-65
2024/04/14 14:14:14;;;;;;;1999.90;999.90;;;;;;;19.84;41.82;101988.53;11361631;26;19998;-65
2024/04/14 14:19:17;;;;;;;1999.90;999.90;;;;;;;20.49;41.84;101986.06;11331290;26;19998;-65
2024/04/14 14:24:19;;;;;;;1999.90;999.90;;;;;;;20.73;42.40;101978.78;11363208;26;19998;-65
2024/04/14 14:29:22;;;;;;;1999.90;999.90;;;;;;;20.51;42.67;101974.34;11363076;26;20043;-65
2024/04/14 14:39:45;;;;;;;;;;;;;;;17.76;44.94;101988.56;11362000;26;19998;-65
2024/04/14 14:44:48;;;;;;;1999.90;999.90;;;;;;;19.63;44.04;101975.06;11362503;26;19930;-65
2024/04/14 14:49:50;;;;;;;1999.90;999.90;;;;;;;19.42;45.26;101972.25;11360956;26;20005;-65
2024/04/14 14:54:53;;;;;;;1999.90;999.90;;;;;;;17.99;47.57;101992.31;11362377;26;20012;-65
2024/04/14 14:59:55;;;;;;;1999.90;999.90;;;;;;;18.13;46.52;101977.25;11361644;26;20482;-65
2024/04/14 15:04:58;;;;;;;1999.90;999.90;;;;;;;19.19;45.13;101966.03;11361839;26;19998;-65
2024/04/14 15:10:01;;;;;;;1999.90;999.90;;;;;;;17.26;48.44;101984.91;11361964;26;20002;-65
2024/04/14 15:15:05;;;;;;;1999.90;999.90;;;;;;;17.89;47.83;101978.00;11362335;26;19998;-65
2024/04/14 15:20:08;;;;;;;1999.90;999.90;;;;;;;17.67;48.79;101975.09;11361541;26;19998;-65
2024/04/14 15:25:10;;;;;;;1999.90;999.90;;;;;;;17.74;46.32;101960.50;11360937;26;20008;-65
2024/04/14 15:30:13;;;;;;;1999.90;999.90;;;;;;;16.99;49.76;101963.78;11329172;26;20464;-65
2024/04/14 15:35:15;;;;;;;1999.90;999.90;;;;;;;16.75;50.99;101963.59;11361128;26;19998;-65
2024/04/14 15:40:19;;;;;;;1999.90;999.90;;;;;;;17.69;48.31;101952.88;11360662;26;20006;-65
2024/04/14 15:45:22;;;;;;;1999.90;999.90;;;;;;;16.82;50.72;101957.78;11360985;26;20446;-65
2024/04/14 15:50:24;;;;;;;1999.90;999.90;;;;;;;17.41;48.63;101949.47;11360403;26;19994;-65
2024/04/14 15:55:27;;;;;;;1999.90;999.90;;;;;;;17.34;49.63;101945.53;11360334;26;20471;-65
2024/04/14 16:00:29;;;;;;;1999.90;999.90;;;;;;;16.98;51.67;101947.06;11360105;26;19998;-65
2024/04/14 16:05:32;;;;;;;1999.90;999.90;;;;;;;16.37;51.20;101938.63;11359775;26;20032;-66
2024/04/14 16:10:34;;;;;;;1999.90;999.90;;;;;;;16.41;53.49;101936.66;11358111;26;19999;-65
2024/04/14 16:15:37;;;;;;;1999.90;999.90;;;;;;;16.04;52.24;101939.84;11359215;26;20075;-65
2024/04/14 16:20:39;;;;;;;1999.90;999.90;;;;;;;15.84;51.33;101934.97;11359838;26;20006;-65
2024/04/14 16:25:42;;;;;;;1999.90;999.90;;;;;;;15.98;52.94;101929.66;11359005;26;20013;-65
2024/04/14 16:30:44;;;;;;;1999.90;999.90;;;;;;;15.36;53.58;101919.31;11357402;26;20009;-65
2024/04/14 16:35:47;;;;;;;1999.90;999.90;;;;;;;15.59;53.97;101915.28;11358631;26;20456;-65
2024/04/14 16:40:49;;;;;;;1999.90;999.90;;;;;;;15.31;54.73;101911.66;11356527;26;20009;-65
2024/04/14 16:45:52;;;;;;;1999.90;999.90;;;;;;;15.47;53.77;101906.31;11356427;26;20017;-65
2024/04/14 16:50:54;;;;;;;1999.90;999.90;;;;;;;15.31;55.00;101895.00;11358604;26;19998;-65
2024/04/14 16:55:57;;;;;;;1999.90;999.90;;;;;;;14.93;54.41;101895.47;11357993;26;19999;-65
2024/04/14 17:01:00;;;;;;;1999.90;999.90;;;;;;;14.69;53.80;101869.59;11357915;26;19998;-65
2024/04/14 17:06:03;;;;;;;1999.90;999.90;;;;;;;14.94;53.82;101871.63;11357700;26;19998;-65
2024/04/14 17:11:06;;;;;;;1999.90;999.90;;;;;;;15.04;53.94;101864.88;11357333;26;19998;-65
2024/04/14 17:16:08;;;;;;;1999.90;999.90;;;;;;;14.69;54.38;101872.22;11355443;26;20013;-65
2024/04/14 17:21:11;;;;;;;1999.90;999.90;;;;;;;14.89;54.81;101854.41;11360131;26;20009;-65
2024/04/14 17:26:14;;;;;;;1999.90;999.90;;;;;;;14.49;55.05;101854.88;11364452;26;19998;-65
2024/04/14 17:31:16;;;;;;;1999.90;999.90;;;;;;;14.52;55.91;101845.97;11362985;26;20013;-65
2024/04/14 17:36:19;;;;;;;1999.90;999.90;;;;;;;14.48;55.45;101840.03;11364288;26;20010;-65
2024/04/14 17:41:21;;;;;;;1999.90;999.90;;;;;;;14.33;57.13;101820.66;11311603;21;20026;-67
2024/04/14 17:46:24;;;;;;;1999.90;999.90;;;;;;;14.31;57.58;101810.22;11288437;26;20457;-67
2024/04/14 17:51:26;;;;;;;1999.90;999.90;;;;;;;14.27;58.08;101803.44;11288736;26;19999;-68
2024/04/14 17:56:28;;;;;;;1999.90;999.90;;;;;;;14.02;59.30;101801.34;11288724;26;20450;-68
2024/04/14 18:01:31;;;;;;;1999.90;999.90;;;;;;;14.00;60.82;101794.44;11256963;26;19999;-68
2024/04/14 18:06:34;;;;;;;1999.90;999.90;;;;;;;13.49;59.80;101786.72;11287748;26;20007;-67
2024/04/14 18:11:37;;;;;;;1999.90;999.90;;;;;;;13.59;60.30;101784.44;11288208;26;19999;-67
2024/04/14 18:16:39;;;;;;;1999.90;999.90;;;;;;;13.52;59.79;101781.28;11287633;26;20014;-67
2024/04/14 18:21:42;;;;;;;1999.90;999.90;;;;;;;13.32;59.96;101772.69;11287822;26;20071;-67
2024/04/14 18:26:44;;;;;;;1999.90;999.90;;;;;;;13.30;60.68;101765.78;11287138;26;20010;-67
2024/04/14 18:31:47;;;;;;;1999.90;999.90;;;;;;;13.24;61.21;101763.47;11254705;26;19999;-67
2024/04/14 18:36:49;;;;;;;1999.90;999.90;;;;;;;13.21;61.88;101764.47;11287292;26;20079;-67
2024/04/14 18:41:52;;;;;;;1999.90;999.90;;;;;;;13.13;61.90;101753.50;11255478;26;20487;-67
2024/04/14 18:46:55;;;;;;;1999.90;999.90;;;;;;;13.22;61.57;101745.13;11286682;26;20345;-67
2024/04/14 18:51:58;;;;;;;1999.90;999.90;;;;;;;13.15;61.51;101743.78;11286557;26;20348;-67
2024/04/14 18:57:01;;;;;;;1999.90;999.90;;;;;;;12.89;60.24;101734.63;11286783;26;20010;-67
2024/04/14 19:02:04;;;;;;;1999.90;999.90;;;;;;;12.87;62.83;101733.88;11254669;26;20009;-67
2024/04/14 19:07:06;;;;;;;1999.90;999.90;;;;;;;12.65;64.63;101737.59;11286650;26;20076;-67
2024/04/14 19:12:10;;;;;;;1999.90;999.90;;;;;;;12.78;63.23;101743.06;11254765;26;20056;-67
2024/04/14 19:17:15;;;;;;;1999.90;999.90;;;;;;;12.61;65.66;101744.78;11254590;26;20030;-67
2024/04/14 19:22:18;;;;;;;1999.90;999.90;;;;;;;12.59;66.08;101741.41;11285801;26;20014;-67
2024/04/14 19:27:20;;;;;;;1999.90;999.90;;;;;;;12.43;66.16;101749.19;11285589;26;20014;-67
2024/04/14 19:32:23;;;;;;;1999.90;999.90;;;;;;;12.25;66.96;101742.22;11285592;26;20013;-68
2024/04/14 19:37:25;;;;;;;1999.90;999.90;;;;;;;12.48;66.96;101732.34;11285749;26;19994;-67
2024/04/14 19:42:28;;;;;;;1999.90;999.90;;;;;;;12.31;66.34;101723.53;11284671;26;19999;-67
2024/04/14 19:47:31;;;;;;;1999.90;999.90;;;;;;;12.31;68.02;101725.31;11253332;26;20108;-67
2024/04/14 19:52:35;;;;;;;1999.90;999.90;;;;;;;12.25;67.77;101718.59;11253783;26;20060;-67
2024/04/14 19:57:37;;;;;;;1999.90;999.90;;;;;;;12.33;67.66;101708.56;11284847;26;20006;-67
2024/04/14 20:02:40;;;;;;;1999.90;999.90;;;;;;;12.18;67.08;101714.56;11284350;26;20009;-67
2024/04/14 20:07:42;;;;;;;1999.90;999.90;;;;;;;12.01;68.43;101711.00;11252983;26;20013;-67
2024/04/14 20:12:45;;;;;;;1999.90;999.90;;;;;;;12.15;68.59;101705.06;11252724;26;20450;-67
2024/04/14 20:17:47;;;;;;;1999.90;999.90;;;;;;;12.05;68.17;101681.06;11283529;26;19999;-67
2024/04/14 20:22:50;;;;;;;1999.90;999.90;;;;;;;11.95;69.92;101681.56;11283799;26;20015;-67
2024/04/14 20:27:52;;;;;;;1999.90;999.90;;;;;;;12.14;70.33;101666.63;11283065;26;20334;-67
2024/04/14 20:32:56;;;;;;;1999.90;999.90;;;;;;;11.93;69.43;101665.06;11283502;26;19995;-67
2024/04/14 20:37:58;;;;;;;1999.90;999.90;;;;;;;11.91;70.94;101662.50;11250967;26;20003;-67
2024/04/14 20:43:01;;;;;;;1999.90;999.90;;;;;;;12.16;71.05;101664.78;11283074;26;20351;-67
2024/04/14 20:48:04;;;;;;;1999.90;999.90;;;;;;;12.11;70.69;101674.66;11282502;26;20080;-67
2024/04/14 20:53:07;;;;;;;1999.90;999.90;;;;;;;12.11;70.76;101664.16;11282442;26;19999;-67
2024/04/14 20:58:09;;;;;;;1999.90;999.90;;;;;;;11.82;70.25;101652.44;11288202;26;20368;-67
2024/04/14 21:03:12;;;;;;;1999.90;999.90;;;;;;;11.85;68.53;101639.16;11258480;26;20010;-67
2024/04/14 21:08:15;;;;;;;1999.90;999.90;;;;;;;11.95;68.85;101640.44;11289749;26;20071;-67
2024/04/14 21:13:17;;;;;;;1999.90;999.90;;;;;;;11.89;69.85;101635.47;11257809;26;20009;-67
2024/04/14 21:18:20;;;;;;;1999.90;999.90;;;;;;;11.74;71.62;101617.88;11288981;26;20010;-67
2024/04/14 21:23:23;;;;;;;1999.90;999.90;;;;;;;11.43;71.05;101603.59;11289138;26;20360;-67
2024/04/14 21:28:25;;;;;;;1999.90;999.90;;;;;;;11.45;69.59;101594.75;11257303;26;20013;-67
2024/04/14 21:33:28;;;;;;;1999.90;999.90;;;;;;;11.38;68.33;101585.50;11258241;26;20009;-67
2024/04/14 21:38:30;;;;;;;1999.90;999.90;;;;;;;11.79;69.92;101589.63;11288881;26;20083;-67
2024/04/14 21:43:33;;;;;;;1999.90;999.90;;;;;;;11.46;72.50;101591.19;11256969;26;19998;-67
2024/04/14 21:48:35;;;;;;;1999.90;999.90;;;;;;;11.56;70.91;101602.09;11288643;26;20345;-67
2024/04/14 21:53:39;;;;;;;1999.90;999.90;;;;;;;11.47;70.21;101592.91;11288489;26;20073;-67
2024/04/14 21:58:42;;;;;;;1999.90;999.90;;;;;;;11.63;69.77;101586.91;11288538;26;20052;-67
2024/04/14 22:03:44;;;;;;;1999.90;999.90;;;;;;;11.32;69.36;101564.81;11288173;26;19999;-67